createdAt,value
2023-11-07T00:05:25.736Z,99813.56
2023-11-07T00:08:31.224Z,99810.44
2023-11-07T00:11:35.556Z,99790.22
2023-11-07T00:14:39.982Z,99761.13
2023-11-07T00:17:48.332Z,99837.41
2023-11-07T00:20:52.462Z,99837.59
2023-11-07T00:24:06.947Z,99846.94
2023-11-07T00:27:16.319Z,99843.50
2023-11-07T00:30:24.714Z,99850.47
2023-11-07T00:33:38.227Z,99856.34
2023-11-07T00:37:22.018Z,99691.94
2023-11-07T00:45:45.129Z,99644.06
2023-11-07T00:49:30.870Z,99667.66
2023-11-07T01:09:59.575Z,99715.72
2023-11-07T01:18:05.713Z,99682.16
2023-11-07T01:27:03.463Z,99943.31
2023-11-07T01:30:58.972Z,99721.34
2023-11-07T01:39:26.947Z,99713.00
2023-11-07T01:46:57.731Z,99815.69
2023-11-07T01:51:29.246Z,99753.72
2023-11-07T02:03:56.272Z,99962.53
2023-11-07T02:07:09.330Z,99950.38
2023-11-07T02:10:13.818Z,99921.34
2023-11-07T02:13:18.997Z,99969.72
2023-11-07T02:16:23.847Z,99978.44
2023-11-07T02:19:28.496Z,99968.81
2023-11-07T02:23:04.728Z,99970.72
2023-11-07T02:26:09.324Z,99949.72
2023-11-07T02:29:13.900Z,99969.19
2023-11-07T02:32:19.048Z,99974.34
2023-11-07T02:35:23.587Z,99991.91
2023-11-07T02:38:27.945Z,99986.78
2023-11-07T02:41:32.642Z,99977.97
2023-11-07T02:44:45.185Z,99996.34
2023-11-07T02:47:52.236Z,99994.59
2023-11-07T02:50:57.132Z,100001.63
2023-11-07T02:54:01.189Z,99972.72
2023-11-07T02:57:06.901Z,100004.03
2023-11-07T03:00:12.389Z,100005.06
2023-11-07T03:03:16.765Z,99943.91
2023-11-07T03:14:30.990Z,99989.63
2023-11-07T03:18:27.737Z,99800.19
2023-11-07T03:22:29.093Z,99822.72
2023-11-07T03:26:08.051Z,100043.91
2023-11-07T03:34:30.973Z,99934.28
2023-11-07T03:37:59.549Z,100059.00
2023-11-07T03:44:58.138Z,99954.47
2023-11-07T03:57:43.178Z,100066.53
2023-11-07T04:27:51.270Z,99934.88
2023-11-07T04:45:52.276Z,100034.22
2023-11-07T04:50:29.048Z,100049.50
2023-11-07T04:59:14.563Z,100039.06
2023-11-07T05:49:24.490Z,100211.19
2023-11-07T05:52:49.475Z,100270.47
2023-11-07T05:55:59.017Z,100327.00
2023-11-07T05:59:47.094Z,100254.16
2023-11-07T06:07:41.434Z,100274.59
2023-11-07T06:11:27.938Z,100383.91
2023-11-07T06:20:35.018Z,100265.44
2023-11-07T06:24:56.602Z,100275.50
2023-11-07T06:37:49.871Z,100325.59
2023-11-07T06:54:33.696Z,100374.72
2023-11-07T06:58:38.537Z,100385.06
2023-11-07T07:16:51.349Z,100410.91
2023-11-07T07:29:27.031Z,100531.59
2023-11-07T07:33:40.721Z,100530.50
2023-11-07T07:38:27.165Z,100401.56
2023-11-07T07:42:51.838Z,100473.38
2023-11-07T08:03:46.812Z,100663.22
2023-11-07T08:07:53.775Z,100410.22
2023-11-07T08:15:39.771Z,100545.50
2023-11-07T08:19:05.475Z,100506.25
2023-11-07T08:22:46.532Z,100463.75
2023-11-07T08:25:58.155Z,100591.72
2023-11-07T08:30:04.555Z,100747.91
2023-11-07T08:34:00.812Z,100564.19
2023-11-07T08:38:14.322Z,100697.78
2023-11-07T08:41:31.466Z,100546.38
2023-11-07T08:44:55.408Z,100691.66
2023-11-07T08:48:38.060Z,100663.72
2023-11-07T08:51:45.277Z,100723.22
2023-11-07T08:54:55.696Z,100684.50
2023-11-07T09:02:46.192Z,100811.75
2023-11-07T09:06:03.081Z,100654.69
2023-11-07T09:09:11.079Z,100708.53
2023-11-07T09:16:17.917Z,100741.75
2023-11-07T09:19:29.883Z,100637.44
2023-11-07T09:22:36.793Z,100775.22
2023-11-07T09:25:51.527Z,100826.56
2023-11-07T09:29:03.935Z,100743.50
2023-11-07T09:32:31.955Z,100731.59
2023-11-07T09:40:04.007Z,100741.75
2023-11-07T09:43:41.456Z,100917.09
2023-11-07T09:47:26.772Z,100937.47
2023-11-07T09:50:50.795Z,100728.91
2023-11-07T09:54:30.306Z,100693.09
2023-11-07T09:58:01.595Z,100742.00
2023-11-07T10:01:41.328Z,100834.19
2023-11-07T10:05:36.861Z,100960.00
2023-11-07T10:12:42.936Z,100868.25
2023-11-07T10:19:38.080Z,100856.72
2023-11-07T10:23:25.100Z,100979.44
2023-11-07T10:26:45.240Z,100872.03
2023-11-07T10:29:59.583Z,100912.22
2023-11-07T10:33:36.662Z,101035.47
2023-11-07T10:36:42.812Z,101048.09
2023-11-07T10:39:57.945Z,101016.13
2023-11-07T10:43:03.338Z,101008.34
2023-11-07T10:46:10.256Z,101067.25
2023-11-07T10:49:16.271Z,101063.75
2023-11-07T10:52:23.654Z,101041.09
2023-11-07T10:55:28.200Z,101047.75
2023-11-07T10:58:35.420Z,101055.16
2023-11-07T11:01:42.207Z,101075.63
2023-11-07T11:04:51.236Z,101052.72
2023-11-07T11:07:59.681Z,101106.31
2023-11-07T11:11:06.552Z,101119.94
2023-11-07T11:14:11.773Z,101109.72
2023-11-07T11:17:45.436Z,101140.63
2023-11-07T11:21:18.911Z,101161.31
2023-11-07T11:24:55.637Z,101167.53
2023-11-07T11:28:07.332Z,101110.66
2023-11-07T11:31:20.733Z,101167.69
2023-11-07T11:34:27.532Z,101198.00
2023-11-07T11:38:26.830Z,101197.19
2023-11-07T11:42:10.917Z,101205.75
2023-11-07T11:48:53.755Z,101217.75
2023-11-07T11:52:09.387Z,101162.94
2023-11-07T11:55:15.253Z,101170.91
2023-11-07T11:58:24.153Z,101171.72
2023-11-07T12:01:51.956Z,101188.59
2023-11-07T12:05:19.698Z,101202.59
2023-11-07T12:08:41.123Z,101238.34
2023-11-07T12:11:47.850Z,101230.13
2023-11-07T12:15:00.380Z,101219.81
2023-11-07T12:18:05.412Z,101246.84
2023-11-07T12:21:10.706Z,101282.97
2023-11-07T12:24:22.254Z,101275.72
2023-11-07T12:27:26.633Z,101292.34
2023-11-07T12:30:34.870Z,101236.78
2023-11-07T12:33:43.469Z,101290.41
2023-11-07T12:36:52.387Z,101130.38
2023-11-07T12:40:30.496Z,101122.97
2023-11-07T12:43:52.942Z,101214.03
2023-11-07T12:47:22.522Z,101184.25
2023-11-07T12:51:02.579Z,101346.03
2023-11-07T12:54:29.981Z,101308.19
2023-11-07T12:57:56.629Z,101311.78
2023-11-07T13:01:14.517Z,101253.09
2023-11-07T13:04:32.347Z,101349.22
2023-11-07T13:08:12.398Z,101285.38
2023-11-07T13:11:20.197Z,101342.13
2023-11-07T13:14:36.053Z,101206.56
2023-11-07T13:18:00.972Z,101218.59
2023-11-07T13:21:13.716Z,101335.72
2023-11-07T13:24:23.375Z,101380.03
2023-11-07T13:27:32.395Z,101357.50
2023-11-07T13:30:40.570Z,101334.28
2023-11-07T13:33:47.871Z,101375.38
2023-11-07T13:36:56.524Z,101372.66
2023-11-07T13:40:22.188Z,101338.53
2023-11-07T13:43:28.179Z,101375.09
2023-11-07T13:46:41.107Z,101380.50
2023-11-07T13:49:48.271Z,101393.53
2023-11-07T13:53:04.167Z,101392.03
2023-11-07T13:56:16.634Z,101283.41
2023-11-07T14:00:01.637Z,101257.41
2023-11-07T14:03:30.062Z,101376.41
2023-11-07T14:06:41.667Z,101378.38
2023-11-07T14:09:59.722Z,101367.47
2023-11-07T14:13:34.936Z,101333.25
2023-11-07T14:17:03.992Z,101434.72
2023-11-07T14:20:21.727Z,101392.28
2023-11-07T14:23:56.922Z,101280.97
2023-11-07T14:27:11.910Z,101425.63
2023-11-07T14:31:08.447Z,101361.06
2023-11-07T14:34:12.721Z,101266.50
2023-11-07T14:37:21.631Z,101382.50
2023-11-07T14:40:26.636Z,101478.56
2023-11-07T14:43:59.254Z,101278.19
2023-11-07T14:47:03.653Z,101485.84
2023-11-07T14:50:09.660Z,101447.78
2023-11-07T14:53:20.639Z,101441.31
2023-11-07T14:56:31.026Z,101499.44
2023-11-07T14:59:35.175Z,101463.72
2023-11-07T15:02:39.871Z,101460.88
2023-11-07T15:05:53.797Z,101522.69
2023-11-07T15:09:18.857Z,101526.47
2023-11-07T15:12:23.231Z,101528.66
2023-11-07T15:15:31.628Z,101497.66
2023-11-07T15:18:38.277Z,101538.44
2023-11-07T15:21:42.492Z,101513.66
2023-11-07T15:24:47.308Z,101511.41
2023-11-07T15:27:52.968Z,101510.38
2023-11-07T15:30:59.894Z,101558.63
2023-11-07T15:34:05.289Z,101557.09
2023-11-07T15:37:09.919Z,101566.59
2023-11-07T15:40:19.256Z,101562.66
2023-11-07T15:43:31.151Z,101579.91
2023-11-07T15:46:38.948Z,101488.66
2023-11-07T15:49:54.810Z,101583.97
2023-11-07T15:53:07.814Z,101607.63
2023-11-07T15:56:15.801Z,101596.91
2023-11-07T15:59:20.815Z,101604.38
2023-11-07T16:02:29.310Z,101597.56
2023-11-07T16:05:34.917Z,101627.53
2023-11-07T16:08:38.740Z,101631.84
2023-11-07T16:11:42.621Z,101614.34
2023-11-07T16:14:46.827Z,101627.69
2023-11-07T16:17:53.168Z,101655.97
2023-11-07T16:20:57.856Z,101643.09
2023-11-07T16:24:01.747Z,101617.59
2023-11-07T16:27:10.297Z,101673.72
2023-11-07T16:30:17.733Z,101610.03
2023-11-07T16:33:22.189Z,101679.81
2023-11-07T16:36:27.920Z,101693.91
2023-11-07T16:39:32.105Z,101692.19
2023-11-07T16:42:36.436Z,101699.00
2023-11-07T16:45:43.234Z,101698.78
2023-11-07T16:48:56.049Z,101566.94
2023-11-07T16:52:17.164Z,101657.56
2023-11-07T16:55:26.129Z,101541.94
2023-11-07T16:58:33.468Z,101570.44
2023-11-07T17:02:01.645Z,101570.97
2023-11-07T17:09:15.138Z,101593.34
2023-11-07T17:12:31.630Z,101639.41
2023-11-07T17:15:46.188Z,101671.38
2023-11-07T17:19:02.535Z,101728.94
2023-11-07T17:23:01.516Z,101669.38
2023-11-07T17:26:32.157Z,101678.66
2023-11-07T17:30:16.805Z,101665.03
2023-11-07T17:33:26.817Z,101703.72
2023-11-07T17:36:34.993Z,101607.19
2023-11-07T17:39:43.135Z,101724.72
2023-11-07T17:43:10.936Z,101708.38
2023-11-07T17:46:24.713Z,101658.06
2023-11-07T17:49:41.998Z,101698.09
2023-11-07T17:52:48.513Z,101666.16
2023-11-07T17:56:13.453Z,101579.34
2023-11-07T18:02:44.760Z,101801.03
2023-11-07T18:05:48.889Z,101796.44
2023-11-07T18:08:54.145Z,101760.44
2023-11-07T18:11:58.394Z,101806.53
2023-11-07T18:15:02.337Z,101820.00
2023-11-07T18:18:09.104Z,101820.88
2023-11-07T18:21:13.501Z,101825.19
2023-11-07T18:24:21.935Z,101688.28
2023-11-07T18:27:26.192Z,101793.47
2023-11-07T18:30:31.181Z,101823.31
2023-11-07T18:33:36.786Z,101809.50
2023-11-07T18:36:43.754Z,101797.63
2023-11-07T18:39:49.316Z,101638.69
2023-11-07T18:42:53.855Z,101791.97
2023-11-07T18:45:59.800Z,101828.66
2023-11-07T18:49:04.336Z,101791.59
2023-11-07T18:52:11.033Z,101800.81
2023-11-07T18:55:17.812Z,101731.69
2023-11-07T18:58:28.117Z,101814.16
2023-11-07T19:01:35.696Z,101785.41
2023-11-07T19:04:51.148Z,101823.84
2023-11-07T19:07:57.204Z,101824.81
2023-11-07T19:11:11.830Z,101811.97
2023-11-07T19:14:49.023Z,101843.47
2023-11-07T19:18:27.549Z,101773.31
2023-11-07T19:22:12.154Z,101752.59
2023-11-07T19:25:35.682Z,101802.78
2023-11-07T19:28:49.007Z,101841.25
2023-11-07T19:31:54.641Z,101831.91
2023-11-07T19:35:07.532Z,101862.88
2023-11-07T19:38:13.491Z,101879.25
2023-11-07T19:45:06.903Z,101821.44
2023-11-07T19:48:16.710Z,101836.28
2023-11-07T19:51:20.904Z,101855.47
2023-11-07T19:54:33.929Z,101903.09
2023-11-07T19:57:39.187Z,101884.25
2023-11-07T20:00:44.772Z,101916.59
2023-11-07T20:03:49.444Z,101910.19
2023-11-07T20:06:53.478Z,101902.00
2023-11-07T20:09:57.927Z,101911.75
2023-11-07T20:13:04.901Z,101905.63
2023-11-07T20:16:10.444Z,101912.13
2023-11-07T20:19:15.140Z,101846.19
2023-11-07T20:22:20.030Z,101884.72
2023-11-07T20:25:24.418Z,101931.97
2023-11-07T20:28:29.596Z,101880.34
2023-11-07T20:31:33.632Z,101938.31
2023-11-07T20:34:38.458Z,101915.19
2023-11-07T20:37:44.846Z,101968.44
2023-11-07T20:40:49.832Z,101912.31
2023-11-07T20:43:56.557Z,101955.03
2023-11-07T20:47:01.057Z,101953.44
2023-11-07T20:50:07.902Z,101951.31
2023-11-07T20:53:11.949Z,101966.94
2023-11-07T20:56:16.746Z,101976.16
2023-11-07T20:59:20.766Z,101985.44
2023-11-07T21:02:31.102Z,102019.88
2023-11-07T21:05:40.044Z,102013.50
2023-11-07T21:08:54.271Z,102011.09
2023-11-07T21:12:23.518Z,102015.72
2023-11-07T21:15:28.280Z,101996.75
2023-11-07T21:18:33.416Z,102018.69
2023-11-07T21:21:38.019Z,102035.66
2023-11-07T21:24:42.690Z,102048.56
2023-11-07T21:27:46.984Z,101977.69
2023-11-07T21:30:53.488Z,102049.03
2023-11-07T21:34:03.501Z,102042.44
2023-11-07T21:37:17.930Z,101969.06
2023-11-07T21:40:43.680Z,102042.16
2023-11-07T21:43:51.450Z,102041.44
2023-11-07T21:47:11.951Z,102048.16
2023-11-07T21:50:26.760Z,102008.63
2023-11-07T21:53:33.918Z,102026.94
2023-11-07T21:56:44.384Z,102043.94
2023-11-07T21:59:48.840Z,102046.19
2023-11-07T22:02:59.999Z,102061.84
2023-11-07T22:06:13.833Z,102009.06
2023-11-07T22:09:47.513Z,101934.34
2023-11-07T22:12:54.601Z,102047.41
2023-11-07T22:15:58.559Z,102021.41
2023-11-07T22:19:03.821Z,102065.75
2023-11-07T22:22:17.349Z,102071.34
2023-11-07T22:25:22.150Z,102044.28
2023-11-07T22:28:26.730Z,102060.03
2023-11-07T22:31:30.794Z,102102.34
2023-11-07T22:34:35.965Z,102110.34
2023-11-07T22:37:40.247Z,102095.44
2023-11-07T22:40:44.287Z,102097.72
2023-11-07T22:43:48.496Z,102069.41
2023-11-07T22:46:55.230Z,102109.44
2023-11-07T22:50:01.329Z,102051.41
2023-11-07T22:53:07.513Z,102005.34
2023-11-07T22:56:11.794Z,102108.28
2023-11-07T22:59:16.093Z,102101.53
2023-11-07T23:02:20.416Z,102089.84
2023-11-07T23:05:24.425Z,102102.63
2023-11-07T23:09:16.208Z,102022.00
2023-11-07T23:13:37.177Z,101902.22
2023-11-07T23:18:06.180Z,101990.59
2023-11-07T23:30:12.624Z,102014.94
2023-11-07T23:34:04.145Z,101920.25
2023-11-07T23:38:02.020Z,102084.19
2023-11-07T23:45:48.808Z,101990.34
2023-11-07T23:49:44.031Z,101974.16
2023-11-07T23:53:13.496Z,102149.94
2023-11-07T23:56:26.157Z,102159.34
2023-11-07T23:59:30.758Z,101988.47
